METAR Data
IDs: Format: Raw Decoded Include TAF

Data at: 0850 UTC 18 Nov 2018

PATG 180836Z AUTO 15011KT 10SM -RA OVC009 05/04 A2930 RMK AO2 CIG 007V012 P0001
PATG 180750Z AUTO 13008KT 10SM -RA SCT011 OVC031 05/04 A2930 RMK AO2 RAE18B36 P0000
PATG 180739Z AUTO 12007KT 10SM -RA SCT006 BKN011 OVC031 05/04 A2929 RMK AO2 RAE18B36 P0000
PATG 180656Z AUTO 10008KT 7SM -RA OVC008 04/04 A2929 RMK AO2 RAE08B25 CIG 006V012 SLP010 P0002 T00440044
PATG 180633Z AUTO 10008KT 9SM -RA BKN013 OVC025 05/04 A2928 RMK AO2 RAE08B25 P0000
PATG 180556Z AUTO 10008KT 10SM -RA BKN022 OVC029 05/04 A2928 RMK AO2 SLP007 P0002 60016 T00500044 10056 20044 53004
PATG 180542Z AUTO 10008KT 10SM -RA SCT012 BKN024 OVC030 05/04 A2927 RMK AO2 P0002
PATG 180456Z AUTO 06006KT 10SM -RA BKN010 BKN020 OVC037 05/04 A2927 RMK AO2 SLP005 P0002 T00500044
PATG 180356Z AUTO 07009KT 10SM -RA BKN012 OVC023 05/04 A2926 RMK AO2 SLP003 P0004 T00500044
PATG 180256Z AUTO 03005KT 10SM -RA OVC014 04/04 A2926 RMK AO2 SLP002 P0003 60008 T00440044 55005
PATG 180246Z AUTO 03006KT 10SM -RA BKN014 OVC027 04/04 A2926 RMK AO2 P0003
PATG 180213Z AUTO 01007KT 10SM -RA SCT020 BKN025 OVC031 04/04 A2926 RMK AO2 P0001
PATG 180156Z AUTO 02006KT 10SM -RA SCT021 OVC031 04/04 A2926 RMK AO2 SLP002 P0003 T00440044
PATG 180056Z AUTO 04007KT 10SM -RA OVC017 06/04 A2927 RMK AO2 SLP004 P0002 T00560044
PATG 172356Z AUTO 04007KT 10SM -RA SCT023 BKN029 OVC036 05/04 A2928 RMK AO2 SLP007 P0004 60028 T00500044 10056 20039 58015
PATG 172256Z AUTO 05009KT 10SM -RA FEW020 OVC040 05/04 A2929 RMK AO2 SLP012 P0003 T00500044
PATG 172247Z AUTO 05009KT 10SM -RA SCT020 SCT029 OVC040 05/04 A2929 RMK AO2 P0003
PATG 172156Z AUTO 04008KT 10SM -RA OVC018 06/04 A2931 RMK AO2 SLP018 P0004 T00560044
PATG 172056Z AUTO 01008KT 9SM -RA OVC020 04/04 A2932 RMK AO2 SLP022 P0005 60017 T00440044 58012
PATG 171956Z AUTO 01008KT 9SM -RA OVC024 04/04 A2934 RMK AO2 SLP027 P0006 T00440039
PATG 171856Z AUTO 36007KT 7SM -RA OVC015 04/04 A2935 RMK AO2 SLP031 P0006 T00440039
PATG 171756Z AUTO 01005KT 10SM -RA OVC015 04/04 A2936 RMK AO2 RAB47 SLP035 P0001 60002 T00440039 10044 20039 56010
PATG 171656Z AUTO 01005KT 10SM OVC015 04/04 A2936 RMK AO2 SLP037 T00440039
PATG 171556Z AUTO 36005KT 10SM OVC017 04/04 A2938 RMK AO2 SLP041 T00440039
PATG 171456Z AUTO 36005KT 10SM OVC017 04/04 A2939 RMK AO2 SLP045 60001 T00390039 56018
PATG 171356Z AUTO 36005KT 10SM OVC015 04/04 A2941 RMK AO2 SLP051 T00440039
PATG 171338Z AUTO 36007KT 10SM OVC015 04/04 A2941 RMK AO2
PATG 171256Z AUTO 36006KT 10SM OVC013 04/04 A2942 RMK AO2 RAE07 SLP057 P0001 T00440039
PATG 171234Z AUTO 36006KT 10SM FEW008 OVC013 04/04 A2943 RMK AO2 RAE07 P0001
PATG 171156Z AUTO 02006KT 4SM -RA BR OVC008 04/04 A2944 RMK AO2 RAB30 SLP063 P0001 60001 70001 T00440039 10050 20039 58013
PATG 171138Z AUTO 36005KT 3SM -RA BR OVC008 04/04 A2945 RMK AO2 RAB30 CIG 006V011 P0001
PATG 171056Z AUTO 02006KT 4SM BR OVC010 05/04 A2946 RMK AO2 CIG 008V014 SLP070 T00500044
PATG 171025Z AUTO VRB03KT 9SM OVC014 04/04 A2947 RMK AO2
PATG 170956Z AUTO 00000KT 10SM OVC016 04/04 A2947 RMK AO2 SLP071 T00440039
PATG 170944Z AUTO 34003KT 10SM OVC016 04/04 A2946 RMK AO2
PATG 170856Z AUTO 36005KT 10SM OVC014 04/04 A2948 RMK AO2 SLP076 60000 T00440039 400610022 58011
PATG 170756Z AUTO 35005KT 10SM OVC014 04/04 A2949 RMK AO2 RAB28E46 SLP080 P0000 T00440044
PATG 170656Z AUTO 36004KT 8SM OVC012 04/04 A2950 RMK AO2 SLP085 T00440039
PATG 170640Z AUTO 36005KT 8SM OVC012 04/04 A2951 RMK AO2
PATG 170610Z AUTO 35006KT 5SM BR OVC009 04/04 A2951 RMK AO2 CIG 007V012
PATG 170556Z AUTO 36005KT 6SM BR OVC011 04/04 A2951 RMK AO2 SLP088 T00440039 10061 20039 56016
PATG 170542Z AUTO 36006KT 5SM BR OVC013 04/04 A2951 RMK AO2
PATG 170456Z AUTO 34004KT 10SM OVC015 04/04 A2952 RMK AO2 SLP090 T00440039
PATG 170356Z AUTO 36005KT 10SM OVC015 05/03 A2954 RMK AO2 SLP097 T00500033
PATG 170256Z AUTO 03005KT 10SM OVC019 06/04 A2956 RMK AO2 SLP103 T00560039 56016
PATG 170156Z AUTO 06007KT 10SM OVC024 06/04 A2957 RMK AO2 SLP108 T00560039
PATG 170056Z AUTO 05006KT 10SM OVC023 06/03 A2959 RMK AO2 SLP113 T00560033
PATG 162356Z AUTO 02008KT 10SM OVC021 06/03 A2961 RMK AO2 SLP119 T00560033 10056 20033 56023
PATG 162256Z AUTO 01008KT 10SM OVC021 06/03 A2963 RMK AO2 SLP127 T00560028
PATG 162156Z AUTO 02008KT 10SM OVC021 06/03 A2965 RMK AO2 SLP133 T00560028
PATG 162105Z AUTO 01009KT 10SM OVC028 05/02 A2967 RMK AO2
PATG 162056Z AUTO 01007KT 10SM OVC030 04/02 A2967 RMK AO2 SLP143 T00440022 58004